Terminal Aerodrome Forecast
Issued by NWS

Home | Current Version | Previous Version | Text Only | Print | Product List | Glossary On
Versions: 1 2 3 4 5 6 7 8 9 10 11 12 13 14 15 16 17 18 19 20 21 22 23 24 25 26 27 28 29 30 31 32 33 34 35 36
000
FTUS45 KPSR 220520
TAFIWA
TAF
KIWA 220520Z 2206/2306 22008KT P6SM FEW100
     FM220700 15008KT P6SM FEW070 SCT200
     FM221600 19010KT P6SM SCT060 BKN200
     FM222000 25014G22KT P6SM BKN060 BKN200
     FM230300 27010KT P6SM SCT070 SCT200
      AMD LTD TO CLD VIS AND WIND TIL 221300=

USA.gov is the U.S. government's official web portal to all federal, state and local government web resources and services.